Platter, Oklahoma
Current Conditions -  °F | °C
As of 2:35 AM on Monday 22 Dec 2014 (Local Time) from KDUA Reporting Station
Overcast Overcast  
Wind Chill: 52°   Ceiling: 1600
Heat Index: 52°   Visibility: 10mi
Dew Point: 50°   Wind: 13mph
Humidity: 94%   Direction: 170°S
Pressure: 29.64"   Gusts: NA
Location:  33.91°N, 96.53°W
Report Text: KDUA 220835Z AUTO 17011KT 10SM OVC016 11/10 A2964 RMK AO2
Loading
Personal Weather Stations






























Interactive Weather Map New forecast layout! Learn more

10-Day Weather Forecast

Advertisements
Track Severe Weather on mobile